createdAt,value
2023-04-16T00:01:04.882Z,7.88
2023-04-16T00:03:31.791Z,7.57
2023-04-16T00:05:59.272Z,5.90
2023-04-16T00:08:26.085Z,8.00
2023-04-16T00:10:54.089Z,10.02
2023-04-16T00:13:21.027Z,6.72
2023-04-16T00:15:47.756Z,7.45
2023-04-16T00:18:14.537Z,7.65
2023-04-16T00:20:41.207Z,5.88
2023-04-16T00:23:07.941Z,7.40
2023-04-16T00:25:34.778Z,6.97
2023-04-16T00:28:01.465Z,6.18
2023-04-16T00:30:29.501Z,5.70
2023-04-16T00:32:56.239Z,5.65
2023-04-16T00:35:23.061Z,4.70
2023-04-16T00:37:51.792Z,5.45
2023-04-16T00:42:45.839Z,5.03
2023-04-16T00:45:12.647Z,4.65
2023-04-16T00:47:39.570Z,6.07
2023-04-16T00:50:06.949Z,9.13
2023-04-16T00:52:34.491Z,6.00
2023-04-16T00:55:01.464Z,4.22
2023-04-16T00:57:28.148Z,4.15
2023-04-16T00:59:55.657Z,4.05
2023-04-16T01:02:22.831Z,6.13
2023-04-16T01:04:50.301Z,5.65
2023-04-16T01:07:17.313Z,3.63
2023-04-16T01:09:43.971Z,4.35
2023-04-16T01:12:10.674Z,4.55
2023-04-16T01:14:37.436Z,5.72
2023-04-16T01:17:04.522Z,4.63
2023-04-16T01:19:31.287Z,5.25
2023-04-16T01:21:59.478Z,10.80
2023-04-16T01:24:26.138Z,6.53
2023-04-16T01:26:53.263Z,6.18
2023-04-16T01:29:20.185Z,7.22
2023-04-16T01:31:47.118Z,10.15
2023-04-16T01:34:13.905Z,7.10
2023-04-16T01:36:40.582Z,6.18
2023-04-16T01:39:07.532Z,6.20
2023-04-16T01:41:34.406Z,10.40
2023-04-16T01:44:01.185Z,6.43
2023-04-16T01:46:31.441Z,6.95
2023-04-16T01:48:58.525Z,6.25
2023-04-16T01:51:25.448Z,6.57
2023-04-16T01:53:52.256Z,8.02
2023-04-16T01:56:20.609Z,6.43
2023-04-16T01:58:47.408Z,6.68
2023-04-16T02:01:14.506Z,7.72
2023-04-16T02:03:41.637Z,9.98
2023-04-16T02:06:08.636Z,7.63
2023-04-16T02:08:35.608Z,9.13
2023-04-16T02:11:08.291Z,7.28
2023-04-16T02:13:35.255Z,8.93
2023-04-16T02:16:02.722Z,6.07
2023-04-16T02:18:29.471Z,7.85
2023-04-16T02:20:59.978Z,8.98
2023-04-16T02:23:26.818Z,10.80
2023-04-16T02:25:53.734Z,9.98
2023-04-16T02:28:20.392Z,7.25
2023-04-16T02:30:47.069Z,10.32
2023-04-16T02:33:13.870Z,8.75
2023-04-16T02:35:41.275Z,9.40
2023-04-16T02:38:08.785Z,12.48
2023-04-16T02:40:35.484Z,10.90
2023-04-16T02:43:02.263Z,9.93
2023-04-16T02:45:31.405Z,10.75
2023-04-16T02:47:58.475Z,9.05
2023-04-16T02:50:25.358Z,7.75
2023-04-16T02:52:52.321Z,9.00
2023-04-16T02:55:19.149Z,14.35
2023-04-16T02:57:45.816Z,10.68
2023-04-16T03:00:12.952Z,20.63
2023-04-16T03:02:40.059Z,9.85
2023-04-16T03:05:07.095Z,11.55
2023-04-16T03:07:33.884Z,12.05
2023-04-16T03:10:00.707Z,13.55
2023-04-16T03:12:27.477Z,10.45
2023-04-16T03:14:54.220Z,15.90
2023-04-16T03:17:20.929Z,13.93
2023-04-16T03:19:47.687Z,12.13
2023-04-16T03:22:14.366Z,15.63
2023-04-16T03:24:41.059Z,14.88
2023-04-16T03:27:07.801Z,18.10
2023-04-16T03:29:37.774Z,12.93
2023-04-16T03:32:04.462Z,13.90
2023-04-16T03:34:31.134Z,13.77
2023-04-16T03:36:57.897Z,17.75
2023-04-16T03:39:24.528Z,12.95
2023-04-16T03:41:51.225Z,11.13
2023-04-16T03:44:17.898Z,12.20
2023-04-16T03:46:44.590Z,16.05
2023-04-16T03:49:11.520Z,13.70
2023-04-16T03:51:38.513Z,17.30
2023-04-16T03:54:05.234Z,13.85
2023-04-16T03:56:31.989Z,13.95
2023-04-16T03:58:58.647Z,15.05
2023-04-16T04:01:25.388Z,17.83
2023-04-16T04:03:52.351Z,13.57
2023-04-16T04:06:19.281Z,11.23
2023-04-16T04:08:45.941Z,13.35
2023-04-16T04:11:12.674Z,13.32
2023-04-16T04:13:39.414Z,16.38
2023-04-16T04:16:06.510Z,13.48
2023-04-16T04:18:33.304Z,16.88
2023-04-16T04:21:00.052Z,13.75
2023-04-16T04:23:26.694Z,18.20
2023-04-16T04:25:53.460Z,11.63
2023-04-16T04:28:20.194Z,14.70
2023-04-16T04:30:46.875Z,17.23
2023-04-16T04:33:13.685Z,17.55
2023-04-16T04:35:40.454Z,17.05
2023-04-16T04:38:07.281Z,18.52
2023-04-16T04:40:34.061Z,17.77
2023-04-16T04:43:00.859Z,18.60
2023-04-16T04:45:28.503Z,15.50
2023-04-16T04:47:57.065Z,24.70
2023-04-16T04:50:23.797Z,16.08
2023-04-16T04:52:50.510Z,18.42
2023-04-16T04:55:17.374Z,15.15
2023-04-16T04:57:44.147Z,20.73
2023-04-16T05:00:11.465Z,16.40
2023-04-16T05:02:38.613Z,25.17
2023-04-16T05:05:06.171Z,20.55
2023-04-16T05:07:32.851Z,20.55
2023-04-16T05:09:59.550Z,19.52
2023-04-16T05:12:26.216Z,17.98
2023-04-16T05:14:52.871Z,16.63
2023-04-16T05:17:19.617Z,20.08
2023-04-16T05:19:46.360Z,16.30
2023-04-16T05:22:13.134Z,20.35
2023-04-16T05:24:39.912Z,16.98
2023-04-16T05:27:06.670Z,19.60
2023-04-16T05:29:33.389Z,18.75
2023-04-16T05:32:00.078Z,22.92
2023-04-16T05:34:26.757Z,19.20
2023-04-16T05:36:53.482Z,18.50
2023-04-16T05:39:20.448Z,15.75
2023-04-16T05:41:47.210Z,19.30
2023-04-16T05:44:15.261Z,22.70
2023-04-16T05:46:42.064Z,28.35
2023-04-16T05:49:09.031Z,21.35
2023-04-16T05:51:36.230Z,26.65
2023-04-16T05:54:03.030Z,18.23
2023-04-16T05:56:30.752Z,20.55
2023-04-16T05:58:57.422Z,21.80
2023-04-16T06:01:25.526Z,30.45
2023-04-16T06:03:52.373Z,22.55
2023-04-16T06:06:19.088Z,22.80
2023-04-16T06:08:45.962Z,27.58
2023-04-16T06:11:12.668Z,23.40
2023-04-16T06:13:39.389Z,32.38
2023-04-16T06:16:06.505Z,26.67
2023-04-16T06:18:33.255Z,28.33
2023-04-16T06:21:00.002Z,23.30
2023-04-16T06:23:26.768Z,27.05
2023-04-16T06:25:53.511Z,24.50
2023-04-16T06:28:20.299Z,26.02
2023-04-16T06:30:47.546Z,31.92
2023-04-16T06:33:14.223Z,27.00
2023-04-16T06:35:40.952Z,24.25
2023-04-16T06:38:07.688Z,27.33
2023-04-16T06:40:34.621Z,26.27
2023-04-16T06:43:01.520Z,24.40
2023-04-16T06:45:28.194Z,20.55
2023-04-16T06:47:55.027Z,19.02
2023-04-16T06:50:23.344Z,29.13
2023-04-16T06:52:50.493Z,21.27
2023-04-16T06:55:17.243Z,21.05
2023-04-16T06:57:44.073Z,20.50
2023-04-16T07:00:11.840Z,26.50
2023-04-16T07:02:38.625Z,25.75
2023-04-16T07:05:05.740Z,28.42
2023-04-16T07:07:32.895Z,26.50
2023-04-16T07:10:01.278Z,24.15
2023-04-16T07:12:28.045Z,24.88
2023-04-16T07:14:55.791Z,24.10
2023-04-16T07:17:22.426Z,24.25
2023-04-16T07:19:49.174Z,22.25
2023-04-16T07:22:15.902Z,28.58
2023-04-16T07:24:42.679Z,22.25
2023-04-16T07:27:09.361Z,24.15
2023-04-16T07:29:36.235Z,21.48
2023-04-16T07:32:03.019Z,26.77
2023-04-16T07:34:29.841Z,24.90
2023-04-16T07:36:56.767Z,16.33
2023-04-16T07:39:23.483Z,17.67
2023-04-16T07:41:50.236Z,19.58
2023-04-16T07:44:17.215Z,14.90
2023-04-16T07:46:47.478Z,18.10
2023-04-16T07:49:14.637Z,12.30
2023-04-16T07:51:41.464Z,12.02
2023-04-16T07:54:08.131Z,14.68
2023-04-16T07:56:34.845Z,11.95
2023-04-16T07:59:14.464Z,12.63
2023-04-16T08:01:46.014Z,11.77
2023-04-16T08:04:13.046Z,13.25
2023-04-16T08:06:40.006Z,9.88
2023-04-16T08:09:07.394Z,11.57
2023-04-16T08:11:34.315Z,8.98
2023-04-16T08:14:01.325Z,9.63
2023-04-16T08:16:28.107Z,8.60
2023-04-16T08:18:54.998Z,9.15
2023-04-16T08:21:22.150Z,8.68
2023-04-16T08:23:48.830Z,8.70
2023-04-16T08:26:17.402Z,7.88
2023-04-16T08:28:44.181Z,8.77
2023-04-16T08:31:11.133Z,8.45
2023-04-16T08:33:37.904Z,8.18
2023-04-16T08:36:04.829Z,10.77
2023-04-16T08:38:31.532Z,8.85
2023-04-16T08:41:05.693Z,7.97
2023-04-16T08:43:39.282Z,8.60
2023-04-16T08:46:06.708Z,8.73
2023-04-16T08:48:35.156Z,7.95
2023-04-16T08:51:02.442Z,7.63
2023-04-16T08:53:53.521Z,7.95
2023-04-16T08:56:22.954Z,7.18
2023-04-16T08:58:51.697Z,12.07
2023-04-16T09:03:48.518Z,7.43
2023-04-16T09:06:16.415Z,6.90
2023-04-16T09:08:46.554Z,7.30
2023-04-16T09:11:20.451Z,9.02
2023-04-16T09:13:47.659Z,10.02
2023-04-16T09:16:15.304Z,8.55
2023-04-16T09:18:42.246Z,5.47
2023-04-16T09:21:12.568Z,6.22
2023-04-16T09:23:41.107Z,5.93
2023-04-16T09:26:07.902Z,5.22
2023-04-16T09:28:41.375Z,6.10
2023-04-16T09:31:15.936Z,11.63
2023-04-16T09:33:43.940Z,5.50
2023-04-16T09:36:11.116Z,5.80
2023-04-16T09:38:54.543Z,6.32
2023-04-16T09:41:27.553Z,6.40
2023-04-16T09:43:59.126Z,5.72
2023-04-16T09:46:37.567Z,6.40
2023-04-16T09:49:18.897Z,10.32
2023-04-16T09:51:49.660Z,7.97
2023-04-16T09:54:16.461Z,6.15
2023-04-16T09:56:45.606Z,7.63
2023-04-16T09:59:19.217Z,8.77
2023-04-16T10:02:14.992Z,7.45
2023-04-16T10:04:51.721Z,8.77
2023-04-16T10:07:19.589Z,9.57
2023-04-16T10:09:50.102Z,6.82
2023-04-16T10:12:16.834Z,7.13
2023-04-16T10:14:43.982Z,8.43
2023-04-16T10:17:11.429Z,9.30
2023-04-16T10:19:39.160Z,10.70
2023-04-16T10:22:06.327Z,11.95
2023-04-16T10:24:34.652Z,9.07
2023-04-16T10:27:02.761Z,12.45
2023-04-16T10:29:31.447Z,12.40
2023-04-16T10:34:26.356Z,12.63
2023-04-16T10:36:54.125Z,14.30
2023-04-16T10:39:25.621Z,12.80
2023-04-16T10:42:10.556Z,11.57
2023-04-16T10:44:37.568Z,12.10
2023-04-16T10:47:11.831Z,13.93
2023-04-16T10:49:38.760Z,13.43
2023-04-16T10:52:16.933Z,15.10
2023-04-16T10:54:43.778Z,18.92
2023-04-16T10:57:16.214Z,20.85
2023-04-16T10:59:43.968Z,23.05
2023-04-16T11:02:15.573Z,31.20
2023-04-16T11:04:47.313Z,27.23
2023-04-16T11:07:32.553Z,19.40
2023-04-16T11:10:06.746Z,18.95
2023-04-16T11:12:38.149Z,19.42
2023-04-16T11:15:13.033Z,15.00
2023-04-16T11:17:48.678Z,19.63
2023-04-16T11:20:23.855Z,20.05
2023-04-16T11:22:51.907Z,23.02
2023-04-16T11:25:22.765Z,16.98
2023-04-16T11:27:50.688Z,19.70
2023-04-16T11:30:18.514Z,17.23
2023-04-16T11:32:45.720Z,19.93
2023-04-16T11:35:18.177Z,19.92
2023-04-16T11:37:45.795Z,14.15
2023-04-16T11:40:13.013Z,21.23
2023-04-16T11:42:41.434Z,11.60
2023-04-16T11:45:11.310Z,12.85
2023-04-16T11:47:51.774Z,16.73
2023-04-16T11:50:21.380Z,11.43
2023-04-16T11:52:49.511Z,13.30
2023-04-16T11:55:16.225Z,15.95
2023-04-16T11:57:42.968Z,10.85
2023-04-16T12:00:14.164Z,12.55
2023-04-16T12:03:07.161Z,11.55
2023-04-16T12:05:35.716Z,11.15
2023-04-16T12:08:04.719Z,15.45
2023-04-16T12:10:35.125Z,12.48
2023-04-16T12:13:15.668Z,16.23
2023-04-16T12:15:47.116Z,11.43
2023-04-16T12:18:16.166Z,15.23
2023-04-16T12:20:43.685Z,19.13
2023-04-16T12:23:21.984Z,17.10
2023-04-16T12:25:50.052Z,15.70
2023-04-16T12:28:30.000Z,14.32
2023-04-16T12:30:57.026Z,12.75
2023-04-16T12:33:23.938Z,14.00
2023-04-16T12:35:50.947Z,11.55
2023-04-16T12:38:17.865Z,16.15
2023-04-16T12:40:44.944Z,13.40
2023-04-16T12:43:12.112Z,17.48
2023-04-16T12:45:39.920Z,17.38
2023-04-16T12:48:06.871Z,24.80
2023-04-16T12:50:33.746Z,16.58
2023-04-16T12:53:00.700Z,20.50
2023-04-16T12:55:27.372Z,20.50
2023-04-16T12:57:54.690Z,19.42
2023-04-16T13:00:21.706Z,22.55
2023-04-16T13:02:48.671Z,16.83
2023-04-16T13:05:16.647Z,16.23
2023-04-16T13:07:43.517Z,17.48
2023-04-16T13:10:10.877Z,19.83
2023-04-16T13:12:37.696Z,18.50
2023-04-16T13:15:05.279Z,19.58
2023-04-16T13:17:32.083Z,21.30
2023-04-16T13:19:58.795Z,20.65
2023-04-16T13:22:25.524Z,26.40
2023-04-16T13:24:52.322Z,25.92
2023-04-16T13:27:19.089Z,25.05
2023-04-16T13:29:47.119Z,21.27
2023-04-16T13:32:14.726Z,32.13
2023-04-16T13:34:41.557Z,21.40
2023-04-16T13:37:08.221Z,30.33
2023-04-16T13:39:35.005Z,28.63
2023-04-16T13:42:02.646Z,22.42
2023-04-16T13:44:29.540Z,28.17
2023-04-16T13:46:56.683Z,24.98
2023-04-16T13:49:23.512Z,20.38
2023-04-16T13:51:50.639Z,22.92
2023-04-16T13:54:17.357Z,21.25
2023-04-16T13:56:44.101Z,21.58
2023-04-16T13:59:11.311Z,20.95
2023-04-16T14:01:38.317Z,21.70
2023-04-16T14:04:07.106Z,25.42
2023-04-16T14:06:36.614Z,26.67
2023-04-16T14:09:04.180Z,22.48
2023-04-16T14:11:31.405Z,23.45
2023-04-16T14:13:58.321Z,22.83
2023-04-16T14:16:25.118Z,17.48
2023-04-16T14:18:52.105Z,21.75
2023-04-16T14:21:19.139Z,21.42
2023-04-16T14:23:46.011Z,29.98
2023-04-16T14:26:12.957Z,21.75
2023-04-16T14:28:40.922Z,18.65
2023-04-16T14:31:07.692Z,18.58
2023-04-16T14:33:34.462Z,20.15
2023-04-16T14:36:02.982Z,21.33
2023-04-16T14:38:30.259Z,15.45
2023-04-16T14:40:57.080Z,24.10
2023-04-16T14:43:23.726Z,25.75
2023-04-16T14:45:51.072Z,20.48
2023-04-16T14:48:18.004Z,18.65
2023-04-16T14:50:44.920Z,20.73
2023-04-16T14:53:12.400Z,21.42
2023-04-16T14:55:39.116Z,16.52
2023-04-16T14:58:05.893Z,19.40
2023-04-16T15:00:34.863Z,23.08
2023-04-16T15:03:01.694Z,16.55
2023-04-16T15:05:29.082Z,14.52
2023-04-16T15:07:55.783Z,19.10
2023-04-16T15:10:22.542Z,20.15
2023-04-16T15:12:49.167Z,12.65
2023-04-16T15:15:15.980Z,15.13
2023-04-16T15:17:43.506Z,15.38
2023-04-16T15:20:10.923Z,14.25
2023-04-16T15:22:38.348Z,19.10
2023-04-16T15:25:06.346Z,14.73
2023-04-16T15:27:33.175Z,19.35
2023-04-16T15:30:00.032Z,15.95
2023-04-16T15:32:26.851Z,16.90
2023-04-16T15:34:53.623Z,16.58
2023-04-16T15:37:20.372Z,17.70
2023-04-16T15:39:47.113Z,12.95
2023-04-16T15:42:13.834Z,14.00
2023-04-16T15:44:40.910Z,20.60
2023-04-16T15:47:08.688Z,13.77
2023-04-16T15:49:35.988Z,13.40
2023-04-16T15:52:03.093Z,16.88
2023-04-16T15:54:30.780Z,17.98
2023-04-16T15:56:58.744Z,17.33
2023-04-16T15:59:26.621Z,15.93
2023-04-16T16:01:53.603Z,17.50
2023-04-16T16:04:22.860Z,19.23
2023-04-16T16:06:50.407Z,21.23
2023-04-16T16:09:17.353Z,17.92
2023-04-16T16:11:44.173Z,16.80
2023-04-16T16:14:11.023Z,14.45
2023-04-16T16:16:37.938Z,15.43
2023-04-16T16:19:05.805Z,18.30
2023-04-16T16:21:32.746Z,18.63
2023-04-16T16:23:59.514Z,16.88
2023-04-16T16:26:26.272Z,14.85
2023-04-16T16:28:53.262Z,22.83
2023-04-16T16:31:20.059Z,24.30
2023-04-16T16:33:46.732Z,16.15
2023-04-16T16:36:13.466Z,18.25
2023-04-16T16:38:41.314Z,16.90
2023-04-16T16:41:08.139Z,22.60
2023-04-16T16:43:37.738Z,18.88
2023-04-16T16:46:07.169Z,22.38
2023-04-16T16:48:34.007Z,19.73
2023-04-16T16:51:00.736Z,21.02
2023-04-16T16:53:27.479Z,22.55
2023-04-16T16:55:54.211Z,29.40
2023-04-16T16:58:20.980Z,25.08
2023-04-16T17:00:47.674Z,17.10
2023-04-16T17:03:14.654Z,22.02
2023-04-16T17:05:41.653Z,18.27
2023-04-16T17:08:08.309Z,28.13
2023-04-16T17:10:35.837Z,29.98
2023-04-16T17:13:02.632Z,17.50
2023-04-16T17:15:29.567Z,30.23
2023-04-16T17:17:57.150Z,29.27
2023-04-16T17:20:24.185Z,28.52
2023-04-16T17:22:51.249Z,32.33
2023-04-16T17:25:18.182Z,31.23
2023-04-16T17:27:44.979Z,27.17
2023-04-16T17:30:11.946Z,23.35
2023-04-16T17:32:38.630Z,23.20
2023-04-16T17:35:06.878Z,30.33
2023-04-16T17:37:33.625Z,29.27
2023-04-16T17:40:00.461Z,24.45
2023-04-16T17:42:27.324Z,25.40
2023-04-16T17:44:54.149Z,21.70
2023-04-16T17:47:20.972Z,23.45
2023-04-16T17:49:47.779Z,24.88
2023-04-16T17:52:14.577Z,22.38
2023-04-16T17:54:42.178Z,30.85
2023-04-16T17:57:10.010Z,25.75
2023-04-16T17:59:36.677Z,18.63
2023-04-16T18:02:03.643Z,20.58
2023-04-16T18:04:30.802Z,22.45
2023-04-16T18:06:57.755Z,22.25
2023-04-16T18:09:24.518Z,20.98
2023-04-16T18:11:51.210Z,22.02
2023-04-16T18:14:20.084Z,22.35
2023-04-16T18:16:50.285Z,25.67
2023-04-16T18:19:17.075Z,17.00
2023-04-16T18:21:44.950Z,22.02
2023-04-16T18:24:12.116Z,19.13
2023-04-16T18:26:41.091Z,20.63
2023-04-16T18:29:09.026Z,24.98
2023-04-16T18:31:36.263Z,26.05
2023-04-16T18:34:03.139Z,20.65
2023-04-16T18:36:29.900Z,23.30
2023-04-16T18:39:02.274Z,26.50
2023-04-16T18:41:30.727Z,23.88
2023-04-16T18:43:57.692Z,20.75
2023-04-16T18:46:26.776Z,20.92
2023-04-16T18:48:53.746Z,23.38
2023-04-16T18:51:21.264Z,24.88
2023-04-16T18:53:48.029Z,26.73
2023-04-16T18:56:14.748Z,25.85
2023-04-16T18:58:41.502Z,36.97
2023-04-16T19:01:11.296Z,23.40
2023-04-16T19:03:38.844Z,26.05
2023-04-16T19:06:06.319Z,32.03
2023-04-16T19:08:33.107Z,30.17
2023-04-16T19:10:59.899Z,29.52
2023-04-16T19:13:26.735Z,35.20
2023-04-16T19:16:02.799Z,28.75
2023-04-16T19:18:29.501Z,36.00
2023-04-16T19:21:00.630Z,30.70
2023-04-16T19:23:27.928Z,32.28
2023-04-16T19:25:56.729Z,31.85
2023-04-16T19:28:27.283Z,29.80
2023-04-16T19:30:54.334Z,30.25
2023-04-16T19:33:21.087Z,30.92
2023-04-16T19:35:47.925Z,26.50
2023-04-16T19:38:14.773Z,27.55
2023-04-16T19:40:45.378Z,24.85
2023-04-16T19:43:12.436Z,23.77
2023-04-16T19:45:46.527Z,24.52
2023-04-16T19:48:14.746Z,25.02
2023-04-16T19:50:42.358Z,24.85
2023-04-16T19:53:11.381Z,24.10
2023-04-16T19:55:41.937Z,23.73
2023-04-16T19:58:09.486Z,24.55
2023-04-16T20:00:43.173Z,25.48
2023-04-16T20:03:10.089Z,23.48
2023-04-16T20:05:36.837Z,22.95
2023-04-16T20:08:03.727Z,29.05
2023-04-16T20:10:31.596Z,24.50
2023-04-16T20:12:58.513Z,27.23
2023-04-16T20:15:25.271Z,25.08
2023-04-16T20:17:52.390Z,31.65
2023-04-16T20:20:19.277Z,25.52
2023-04-16T20:22:46.080Z,25.95
2023-04-16T20:25:14.311Z,25.58
2023-04-16T20:27:41.090Z,31.25
2023-04-16T20:30:08.262Z,34.40
2023-04-16T20:32:34.974Z,31.42
2023-04-16T20:35:02.259Z,29.85
2023-04-16T20:37:29.396Z,28.50
2023-04-16T20:39:57.656Z,26.98
2023-04-16T20:42:26.284Z,33.05
2023-04-16T20:44:56.589Z,30.52
2023-04-16T20:47:24.518Z,33.13
2023-04-16T20:49:52.715Z,33.95
2023-04-16T20:52:19.781Z,34.15
2023-04-16T20:54:47.919Z,41.47
2023-04-16T20:57:14.617Z,35.97
2023-04-16T20:59:41.321Z,32.10
2023-04-16T21:02:08.121Z,34.72
2023-04-16T21:04:35.060Z,31.08
2023-04-16T21:07:04.132Z,36.03
2023-04-16T21:09:31.479Z,29.67
2023-04-16T21:11:58.225Z,34.38
2023-04-16T21:14:24.904Z,32.38
2023-04-16T21:16:51.593Z,28.58
2023-04-16T21:19:18.293Z,33.67
2023-04-16T21:21:44.995Z,36.30
2023-04-16T21:24:11.659Z,30.05
2023-04-16T21:26:38.358Z,37.15
2023-04-16T21:29:05.045Z,30.33
2023-04-16T21:33:58.476Z,31.83
2023-04-16T21:36:27.724Z,37.83
2023-04-16T21:38:54.880Z,45.95
2023-04-16T21:41:21.676Z,32.40
2023-04-16T21:43:48.595Z,31.15
2023-04-16T21:46:15.356Z,35.75
2023-04-16T21:48:42.090Z,32.85
2023-04-16T21:51:10.115Z,31.00
2023-04-16T21:53:39.066Z,36.05
2023-04-16T21:56:06.521Z,33.42
2023-04-16T21:58:33.207Z,30.25
2023-04-16T22:00:59.903Z,31.17
2023-04-16T22:03:28.153Z,31.67
2023-04-16T22:06:01.079Z,29.15
2023-04-16T22:08:31.118Z,36.58
2023-04-16T22:11:01.269Z,31.52
2023-04-16T22:13:42.017Z,31.25
2023-04-16T22:16:11.484Z,30.08
2023-04-16T22:18:38.755Z,35.55
2023-04-16T22:21:05.561Z,37.20
2023-04-16T22:23:32.401Z,40.40
2023-04-16T22:25:59.081Z,35.78
2023-04-16T22:28:25.853Z,31.15
2023-04-16T22:30:52.609Z,31.95
2023-04-16T22:33:19.372Z,35.42
2023-04-16T22:35:46.150Z,38.22
2023-04-16T22:38:13.051Z,32.35
2023-04-16T22:40:39.751Z,33.10
2023-04-16T22:43:06.497Z,35.00
2023-04-16T22:45:33.298Z,31.70
2023-04-16T22:48:00.048Z,33.45
2023-04-16T22:50:27.175Z,34.20
2023-04-16T22:52:53.878Z,34.40
2023-04-16T22:55:20.636Z,36.70
2023-04-16T22:57:47.645Z,35.92
2023-04-16T23:00:16.627Z,34.88
2023-04-16T23:02:43.880Z,34.03
2023-04-16T23:05:10.903Z,44.63
2023-04-16T23:07:37.687Z,35.10
2023-04-16T23:10:04.769Z,43.28
2023-04-16T23:12:31.529Z,36.30
2023-04-16T23:14:58.362Z,34.33
2023-04-16T23:17:25.172Z,39.58
2023-04-16T23:19:51.922Z,37.33
2023-04-16T23:22:18.602Z,43.60
2023-04-16T23:24:45.720Z,37.53
2023-04-16T23:27:12.460Z,40.78
2023-04-16T23:29:39.146Z,39.25
2023-04-16T23:32:06.002Z,38.42
2023-04-16T23:34:32.666Z,32.90
2023-04-16T23:36:59.310Z,35.70
2023-04-16T23:39:26.189Z,34.92
2023-04-16T23:41:52.892Z,44.13
2023-04-16T23:44:19.540Z,43.45
2023-04-16T23:46:46.659Z,35.85
2023-04-16T23:49:13.517Z,35.88
2023-04-16T23:51:40.271Z,36.83
2023-04-16T23:54:07.076Z,36.60
2023-04-16T23:56:33.946Z,40.40
2023-04-16T23:59:00.730Z,42.30
